Terminal Aerodrome Forecast
Issued by NWS

Home | Current Version | Previous Version | Text Only | Print | Product List | Glossary On
Versions: 1 2 3 4 5 6 7 8 9 10 11 12 13 14 15 16 17
000
FTUS44 KSJT 071100
TAFJCT
TAF
KJCT 071125Z 0712/0812 17010KT P6SM OVC025
     FM071500 17012G18KT P6SM SCT025 BKN035
     FM071800 17013G20KT P6SM VCSH BKN040
     FM072200 16012G18KT 5SM -SHRA VCTS BKN050CB
     FM080300 15012KT P6SM VCSH OVC025=

USA.gov is the U.S. government's official web portal to all federal, state and local government web resources and services.